Time;durP1;ratioP1;P1;durP2;ratioP2;P2;SDS_P1;SDS_P2;PMS_P1;PMS_P2;Temp;Humidity;BMP_temperature;BMP_pressure;BME280_temperature;BME280_humidity;BME280_pressure;Samples;Min_cycle;Max_cycle;Signal;HPM_P1;HPM_P2
2021/12/09 00:01:23;;;;;;;53.17;28.07;;;;;;;1.79;88.75;100586.59;5051937;28;20232;-78
2021/12/09 00:03:54;;;;;;;54.43;28.57;;;;;;;1.81;87.96;100583.34;5050427;28;20202;-78
2021/12/09 00:06:25;;;;;;;57.67;29.40;;;;;;;1.78;88.38;100579.78;5051641;28;20244;-77
2021/12/09 00:08:51;;;;;;;55.73;29.33;;;;;;;1.82;87.79;100590.13;5050341;28;20610;-78
2021/12/09 00:11:16;;;;;;;54.03;28.30;;;;;;;1.82;88.01;100576.63;5051674;28;20285;-78
2021/12/09 00:13:42;;;;;;;56.60;28.63;;;;;;;1.80;88.19;100579.09;5051767;28;20753;-78
2021/12/09 00:16:07;;;;;;;54.50;28.13;;;;;;;1.82;88.04;100574.09;5051690;28;20224;-77
2021/12/09 00:18:32;;;;;;;58.43;29.20;;;;;;;1.86;88.20;100581.03;5050284;28;20720;-78
2021/12/09 00:20:58;;;;;;;52.00;29.70;;;;;;;1.86;88.55;100573.47;5051909;28;20663;-77
2021/12/09 00:23:23;;;;;;;55.03;27.67;;;;;;;1.81;88.46;100583.34;5051580;28;20519;-78
2021/12/09 00:25:49;;;;;;;53.10;28.53;;;;;;;1.84;88.10;100580.94;5051509;28;20202;-76
2021/12/09 00:28:14;;;;;;;54.73;28.63;;;;;;;1.80;88.63;100581.63;5051353;28;20193;-77
2021/12/09 00:30:40;;;;;;;59.97;31.13;;;;;;;1.83;88.19;100573.34;5050572;28;20178;-77
2021/12/09 00:33:06;;;;;;;54.70;30.50;;;;;;;1.80;88.40;100571.53;5051234;28;20204;-78
2021/12/09 00:35:51;;;;;;;58.60;30.37;;;;;;;1.85;88.25;100566.69;5050007;28;20284;-79
2021/12/09 00:38:34;;;;;;;59.60;29.50;;;;;;;1.83;88.75;100570.81;5051244;28;20285;-77
2021/12/09 00:41:03;;;;;;;60.47;30.00;;;;;;;1.83;88.29;100565.75;5049970;28;20255;-78
2021/12/09 00:43:28;;;;;;;57.27;28.83;;;;;;;1.84;87.93;100565.81;5050120;28;20572;-78
2021/12/09 00:45:54;;;;;;;52.83;28.60;;;;;;;1.83;87.71;100561.56;5049784;28;20213;-75
2021/12/09 00:48:20;;;;;;;58.37;30.13;;;;;;;1.85;87.88;100561.66;5049709;28;20261;-79
2021/12/09 00:50:45;;;;;;;63.13;30.17;;;;;;;1.84;87.85;100568.34;5051035;28;20276;-78
2021/12/09 00:53:11;;;;;;;57.93;30.23;;;;;;;1.85;88.15;100561.66;5050907;28;20228;-78
2021/12/09 00:55:37;;;;;;;60.00;30.57;;;;;;;1.83;88.51;100560.72;5050693;28;20189;-78
2021/12/09 00:58:04;;;;;;;57.07;28.93;;;;;;;1.85;87.51;100547.38;5050710;28;20221;-77
2021/12/09 01:00:31;;;;;;;61.97;30.67;;;;;;;1.87;87.41;100553.34;5050965;28;20177;-79
2021/12/09 01:02:58;;;;;;;64.07;31.47;;;;;;;1.86;87.98;100555.81;5051051;28;20198;-78
2021/12/09 01:05:23;;;;;;;54.90;30.50;;;;;;;1.83;88.42;100553.16;5049448;28;20973;-76
2021/12/09 01:07:49;;;;;;;59.67;31.20;;;;;;;1.82;87.94;100554.78;5049348;28;20211;-80
2021/12/09 01:10:15;;;;;;;60.47;30.53;;;;;;;1.80;87.80;100558.03;5049496;28;20631;-79
2021/12/09 01:12:41;;;;;;;59.40;30.17;;;;;;;1.81;88.36;100554.72;5049546;28;20213;-77
2021/12/09 01:15:08;;;;;;;60.67;30.13;;;;;;;1.80;87.99;100558.91;5049059;28;20254;-78
2021/12/09 01:17:34;;;;;;;61.80;30.50;;;;;;;1.80;87.97;100545.41;5050350;28;20264;-77
2021/12/09 01:19:59;;;;;;;60.00;29.60;;;;;;;1.77;88.24;100551.19;5048877;28;20276;-78
2021/12/09 01:22:33;;;;;;;65.10;31.97;;;;;;;1.77;88.35;100547.78;5050323;28;20197;-78
2021/12/09 01:24:58;;;;;;;66.37;32.03;;;;;;;1.73;88.87;100539.19;5050204;28;20252;-78
2021/12/09 01:27:24;;;;;;;64.27;30.57;;;;;;;1.77;88.81;100543.63;5050302;28;20858;-78
2021/12/09 01:29:54;;;;;;;63.13;31.77;;;;;;;1.74;87.96;100555.22;5048745;28;20260;-76
2021/12/09 01:32:26;;;;;;;65.87;32.03;;;;;;;1.75;87.89;100554.41;5050177;28;20229;-77
2021/12/09 01:34:51;;;;;;;58.07;30.67;;;;;;;1.71;88.90;100555.06;5050327;28;20264;-77
2021/12/09 01:37:16;;;;;;;60.67;30.47;;;;;;;1.68;88.78;100562.47;5050331;28;20826;-76
2021/12/09 01:39:43;;;;;;;65.17;32.77;;;;;;;1.67;88.39;100565.78;5049969;28;20678;-77
2021/12/09 01:42:09;;;;;;;64.83;32.87;;;;;;;1.67;88.14;100560.75;5049119;28;20195;-76
2021/12/09 01:44:34;;;;;;;62.13;30.03;;;;;;;1.66;89.23;100556.50;5049887;28;20280;-77
2021/12/09 01:47:00;;;;;;;66.47;32.30;;;;;;;1.68;88.25;100562.47;5049866;28;20331;-76
2021/12/09 01:49:25;;;;;;;66.20;31.87;;;;;;;1.67;88.67;100555.69;5049791;28;20189;-76
2021/12/09 01:51:51;;;;;;;64.83;30.80;;;;;;;1.72;88.96;100556.78;5049628;28;20178;-76
2021/12/09 01:54:18;;;;;;;65.97;31.43;;;;;;;1.71;88.87;100567.66;5050273;28;20210;-78
2021/12/09 01:56:43;;;;;;;63.73;30.50;;;;;;;1.71;88.69;100558.47;5048867;28;20182;-78
2021/12/09 01:59:09;;;;;;;65.00;30.13;;;;;;;1.70;88.00;100553.34;5049995;28;20525;-78
2021/12/09 02:01:35;;;;;;;65.37;31.20;;;;;;;1.74;88.83;100555.22;5050139;28;20228;-78
2021/12/09 02:04:05;;;;;;;70.10;33.50;;;;;;;1.66;88.76;100548.91;5050139;28;20198;-77
2021/12/09 02:06:31;;;;;;;67.57;33.43;;;;;;;1.64;87.98;100553.88;5049952;28;20218;-77
2021/12/09 02:08:57;;;;;;;69.87;32.03;;;;;;;1.67;88.75;100551.53;5049709;28;20173;-77
2021/12/09 02:11:24;;;;;;;65.17;31.33;;;;;;;1.67;88.96;100543.06;5049964;28;20183;-77
2021/12/09 02:13:56;;;;;;;68.30;33.10;;;;;;;1.66;88.77;100541.34;5048402;28;20644;-78
2021/12/09 02:16:22;;;;;;;74.93;32.43;;;;;;;1.68;88.04;100542.28;5048557;28;20550;-77
2021/12/09 02:18:48;;;;;;;67.90;33.20;;;;;;;1.69;88.37;100541.50;5049654;28;20187;-78
2021/12/09 02:21:34;;;;;;;69.43;32.07;;;;;;;1.65;88.42;100543.00;5048496;28;20272;-78
2021/12/09 02:24:04;;;;;;;70.80;33.63;;;;;;;1.66;87.66;100537.16;5048269;28;20240;-77
2021/12/09 02:26:33;;;;;;;73.13;33.87;;;;;;;1.58;88.70;100540.97;5048108;28;20292;-77
2021/12/09 02:28:59;;;;;;;71.87;33.03;;;;;;;1.57;88.58;100541.78;5049699;28;20201;-76
2021/12/09 02:31:26;;;;;;;66.00;34.23;;;;;;;1.58;88.28;100540.09;5049586;28;20268;-76
2021/12/09 02:33:51;;;;;;;74.37;34.03;;;;;;;1.60;88.63;100543.59;5048124;28;20649;-77
2021/12/09 02:36:17;;;;;;;71.97;33.20;;;;;;;1.61;88.47;100537.75;5048298;28;20276;-76
2021/12/09 02:38:44;;;;;;;78.63;35.10;;;;;;;1.62;88.25;100539.47;5049453;28;20186;-77
2021/12/09 02:41:17;;;;;;;76.40;35.73;;;;;;;1.64;87.71;100537.88;5049811;28;20233;-77
2021/12/09 02:43:49;;;;;;;77.90;33.10;;;;;;;1.64;88.54;100542.91;5049824;28;20565;-76
2021/12/09 02:46:16;;;;;;;67.33;32.97;;;;;;;1.56;88.14;100552.63;5049628;28;20209;-76
2021/12/09 02:48:41;;;;;;;70.07;34.13;;;;;;;1.59;88.41;100554.44;5049358;28;20212;-77
2021/12/09 02:51:07;;;;;;;74.83;33.93;;;;;;;1.58;88.74;100546.03;5049480;28;20205;-78
2021/12/09 02:53:33;;;;;;;71.83;33.23;;;;;;;1.59;87.87;100550.28;5050118;28;20205;-77
2021/12/09 02:55:59;;;;;;;72.00;34.33;;;;;;;1.57;88.44;100551.88;5053590;28;20597;-76
2021/12/09 02:58:25;;;;;;;73.77;34.10;;;;;;;1.55;88.36;100550.03;5049193;28;20186;-77
2021/12/09 03:00:56;;;;;;;73.00;35.17;;;;;;;1.60;88.39;100546.09;5048825;28;20640;-76
2021/12/09 03:03:21;;;;;;;69.17;33.30;;;;;;;1.54;87.87;100549.19;5036223;28;20556;-76
2021/12/09 03:05:47;;;;;;;73.60;34.50;;;;;;;1.59;87.94;100551.91;5053222;28;20212;-77
2021/12/09 03:08:21;;;;;;;71.30;33.17;;;;;;;1.47;88.01;100561.41;5053086;28;20446;-77
2021/12/09 03:10:47;;;;;;;72.83;33.43;;;;;;;1.54;87.78;100555.88;5042507;28;20179;-77
2021/12/09 03:13:12;;;;;;;75.23;34.40;;;;;;;1.55;88.13;100562.63;5033146;28;20301;-76
2021/12/09 03:15:37;;;;;;;75.20;34.97;;;;;;;1.51;88.02;100561.63;5050673;28;20706;-77
2021/12/09 03:18:03;;;;;;;80.93;34.80;;;;;;;1.50;88.24;100554.84;5033453;28;20189;-77
2021/12/09 03:20:28;;;;;;;75.17;35.00;;;;;;;1.51;87.67;100548.16;5051896;28;20196;-77
2021/12/09 03:22:53;;;;;;;77.13;34.27;;;;;;;1.50;87.88;100562.44;5053167;28;20228;-76
2021/12/09 03:25:20;;;;;;;76.40;34.73;;;;;;;1.54;87.89;100571.00;5053150;28;20198;-78
2021/12/09 03:27:47;;;;;;;78.53;34.87;;;;;;;1.54;88.09;100569.34;5033117;28;20210;-77
2021/12/09 03:30:15;;;;;;;76.87;32.97;;;;;;;1.52;88.04;100570.06;5031819;28;20191;-76
2021/12/09 03:32:41;;;;;;;82.13;34.50;;;;;;;1.54;87.73;100566.84;5033705;28;20226;-76
2021/12/09 03:35:09;;;;;;;76.03;33.60;;;;;;;1.52;87.43;100565.03;5051699;28;20314;-77
2021/12/09 03:37:35;;;;;;;72.97;34.40;;;;;;;1.56;87.77;100575.34;5045190;28;20308;-76
2021/12/09 03:40:01;;;;;;;73.37;34.50;;;;;;;1.47;87.20;100581.59;5047862;28;20194;-77
2021/12/09 03:42:30;;;;;;;68.20;33.43;;;;;;;1.53;88.14;100595.38;5032870;28;20206;-77
2021/12/09 03:44:56;;;;;;;71.33;33.93;;;;;;;1.56;86.81;100604.75;5044678;28;20316;-77
2021/12/09 03:47:25;;;;;;;68.67;33.07;;;;;;;1.49;86.97;100601.06;5051836;28;20564;-77
2021/12/09 03:49:51;;;;;;;80.83;37.00;;;;;;;1.47;87.52;100599.25;5051120;28;20301;-76
2021/12/09 03:52:17;;;;;;;76.63;35.87;;;;;;;1.43;87.01;100593.19;5052363;28;20709;-77
2021/12/09 03:54:44;;;;;;;77.60;35.23;;;;;;;1.47;87.54;100592.53;5051522;28;20182;-78
2021/12/09 03:57:10;;;;;;;70.17;32.97;;;;;;;1.49;87.30;100602.69;5052827;28;20190;-77
2021/12/09 03:59:37;;;;;;;67.33;33.60;;;;;;;1.52;86.71;100611.28;5038144;28;20193;-78
2021/12/09 04:02:03;;;;;;;74.23;35.57;;;;;;;1.48;87.58;100606.00;5052294;28;20265;-77
2021/12/09 04:04:29;;;;;;;76.60;35.60;;;;;;;1.46;87.05;100608.44;5053342;28;20244;-77
2021/12/09 04:06:54;;;;;;;72.80;34.53;;;;;;;1.48;86.68;100613.59;5051403;28;20335;-77
2021/12/09 04:09:22;;;;;;;72.60;34.20;;;;;;;1.46;87.42;100615.16;5048997;28;20197;-77
2021/12/09 04:11:48;;;;;;;75.23;34.40;;;;;;;1.39;86.65;100614.00;5030988;28;20301;-77
2021/12/09 04:14:14;;;;;;;69.47;34.50;;;;;;;1.44;86.73;100612.56;5031999;28;20243;-76
2021/12/09 04:16:40;;;;;;;75.23;35.37;;;;;;;1.49;87.48;100605.22;5032155;28;20770;-77
2021/12/09 04:19:07;;;;;;;77.30;35.17;;;;;;;1.47;87.18;100604.28;5031900;28;20194;-78
2021/12/09 04:21:33;;;;;;;71.43;34.47;;;;;;;1.43;87.78;100594.81;5014284;28;20654;-77
2021/12/09 04:23:59;;;;;;;74.60;35.40;;;;;;;1.41;86.94;100588.81;5041535;28;20218;-77
2021/12/09 04:26:24;;;;;;;73.37;34.43;;;;;;;1.37;87.80;100585.28;5051983;28;20299;-78
2021/12/09 04:28:50;;;;;;;75.70;35.53;;;;;;;1.38;87.70;100587.00;5050319;28;20655;-78
2021/12/09 04:31:15;;;;;;;76.20;34.27;;;;;;;1.44;87.11;100579.78;5050375;28;20197;-78
2021/12/09 04:33:42;;;;;;;76.47;35.93;;;;;;;1.47;88.06;100590.00;5051709;28;20237;-78
2021/12/09 04:36:08;;;;;;;74.90;34.43;;;;;;;1.52;88.34;100583.53;5050414;28;20170;-76
2021/12/09 04:38:34;;;;;;;72.70;33.83;;;;;;;1.53;88.24;100581.88;5050178;28;20186;-78
2021/12/09 04:40:59;;;;;;;77.47;35.53;;;;;;;1.52;88.33;100581.00;5050314;28;20720;-78
2021/12/09 04:43:24;;;;;;;72.93;33.63;;;;;;;1.46;88.34;100574.81;5051738;28;20213;-78
2021/12/09 04:45:50;;;;;;;72.30;34.67;;;;;;;1.45;88.29;100575.59;5051804;28;20228;-78
2021/12/09 04:48:15;;;;;;;71.23;33.43;;;;;;;1.51;88.14;100573.41;5046585;28;20190;-77
2021/12/09 04:50:42;;;;;;;72.57;34.03;;;;;;;1.51;87.50;100575.91;5043933;28;20240;-76
2021/12/09 04:53:09;;;;;;;70.63;33.73;;;;;;;1.48;87.73;100583.31;5051551;28;20638;-77
2021/12/09 04:55:34;;;;;;;69.80;32.20;;;;;;;1.44;87.81;100579.78;5051555;28;20177;-78
2021/12/09 04:58:00;;;;;;;74.40;34.07;;;;;;;1.44;87.86;100579.78;5050083;28;20178;-77
2021/12/09 05:00:28;;;;;;;69.83;32.93;;;;;;;1.33;88.02;100585.91;5051580;28;20197;-78
2021/12/09 05:03:09;;;;;;;65.03;32.43;;;;;;;1.41;87.33;100584.66;5051414;28;20289;-76
2021/12/09 05:05:49;;;;;;;70.20;34.53;;;;;;;1.47;87.93;100587.47;5033318;28;20183;-77
2021/12/09 05:08:16;;;;;;;72.10;33.70;;;;;;;1.38;88.27;100581.13;5035120;28;20190;-77
2021/12/09 05:11:32;;;;;;;69.67;34.23;;;;;;;1.45;87.25;100591.59;5044512;28;20205;-77
2021/12/09 05:13:37;;;;;;;67.53;32.90;;;;;;;1.41;87.78;100606.47;5024086;28;20222;-77
2021/12/09 05:16:04;;;;;;;72.10;32.60;;;;;;;1.41;88.15;100612.41;5042774;28;20189;-77
2021/12/09 05:18:32;;;;;;;73.60;34.57;;;;;;;1.38;88.58;100607.19;5044929;28;20221;-78
2021/12/09 05:20:58;;;;;;;67.50;32.83;;;;;;;1.39;87.31;100613.09;5030885;28;20320;-77
2021/12/09 05:23:24;;;;;;;76.50;35.33;;;;;;;1.39;87.59;100608.94;5035568;28;20225;-78
2021/12/09 05:25:49;;;;;;;69.73;35.03;;;;;;;1.41;88.03;100604.84;5049558;28;20273;-78
2021/12/09 05:28:16;;;;;;;70.83;33.43;;;;;;;1.43;87.72;100610.84;5050385;28;20178;-77
2021/12/09 05:33:28;;;;;;;74.57;34.40;;;;;;;1.41;87.54;100611.50;5049110;28;20202;-77
2021/12/09 05:35:54;;;;;;;71.37;33.37;;;;;;;1.41;88.20;100609.00;5044751;28;20281;-78
2021/12/09 05:38:20;;;;;;;67.97;34.00;;;;;;;1.45;87.73;100606.72;5035963;28;20194;-78
2021/12/09 05:40:46;;;;;;;70.73;33.70;;;;;;;1.43;87.52;100609.97;5040806;28;20199;-77
2021/12/09 05:43:12;;;;;;;69.67;34.93;;;;;;;1.43;88.26;100608.31;5049021;28;20585;-78
2021/12/09 05:45:38;;;;;;;77.80;35.37;;;;;;;1.43;87.97;100608.31;5050336;28;20197;-78
2021/12/09 05:48:04;;;;;;;72.83;34.13;;;;;;;1.38;87.70;100616.44;5048828;28;20198;-77
2021/12/09 05:50:29;;;;;;;74.77;33.50;;;;;;;1.36;88.21;100618.88;5048976;28;20178;-78
2021/12/09 05:52:54;;;;;;;73.50;35.17;;;;;;;1.41;88.02;100619.09;5048812;28;20216;-78
2021/12/09 05:55:20;;;;;;;77.87;35.17;;;;;;;1.36;87.56;100621.38;5050314;28;20504;-77
2021/12/09 05:57:45;;;;;;;72.93;35.43;;;;;;;1.39;87.61;100606.44;5048748;28;20209;-77
2021/12/09 06:00:11;;;;;;;73.07;33.70;;;;;;;1.39;88.61;100620.69;5044534;28;20239;-77
2021/12/09 06:02:39;;;;;;;70.43;33.77;;;;;;;1.42;88.73;100621.69;5050359;28;20202;-77
2021/12/09 06:05:05;;;;;;;81.87;37.43;;;;;;;1.40;88.04;100624.91;5050016;28;20216;-78
2021/12/09 06:07:30;;;;;;;79.67;37.20;;;;;;;1.37;89.04;100622.25;5048710;28;20220;-77
2021/12/09 06:09:56;;;;;;;72.10;35.57;;;;;;;1.38;89.32;100621.47;5048253;28;20628;-77
2021/12/09 06:12:22;;;;;;;76.60;35.33;;;;;;;1.40;89.11;100615.72;5050137;28;20203;-77
2021/12/09 06:14:47;;;;;;;76.80;37.33;;;;;;;1.34;88.68;100619.56;5044436;28;20181;-78
2021/12/09 06:17:12;;;;;;;75.80;35.83;;;;;;;1.31;88.49;100625.31;5030270;28;20182;-77
2021/12/09 06:19:38;;;;;;;79.87;38.13;;;;;;;1.31;88.82;100632.00;5029843;28;20725;-78
2021/12/09 06:22:03;;;;;;;75.13;37.40;;;;;;;1.26;89.09;100620.81;5029902;28;20274;-77
2021/12/09 06:24:29;;;;;;;83.50;38.23;;;;;;;1.26;88.91;100615.78;5028704;28;20194;-77
2021/12/09 06:26:54;;;;;;;73.40;35.60;;;;;;;1.23;88.85;100616.50;5029536;28;20206;-77
2021/12/09 06:29:19;;;;;;;79.67;38.43;;;;;;;1.30;88.84;100605.94;5036549;28;20632;-77
2021/12/09 06:31:45;;;;;;;79.53;36.67;;;;;;;1.24;88.27;100608.13;5029655;28;20194;-78
2021/12/09 06:34:12;;;;;;;77.33;36.83;;;;;;;1.26;89.30;100608.22;5029634;28;20301;-76
2021/12/09 06:36:39;;;;;;;77.67;36.80;;;;;;;1.23;88.47;100611.44;5028994;28;20182;-77
2021/12/09 06:39:05;;;;;;;72.23;36.20;;;;;;;1.24;89.01;100622.41;5028056;28;20212;-78
2021/12/09 06:41:31;;;;;;;73.60;35.53;;;;;;;1.26;88.05;100625.88;5028193;28;20183;-77
2021/12/09 06:43:56;;;;;;;79.53;35.67;;;;;;;1.24;89.04;100623.25;5036761;28;20567;-77
2021/12/09 06:46:22;;;;;;;81.20;36.30;;;;;;;1.23;89.20;100620.69;5047672;28;20220;-77
2021/12/09 06:48:47;;;;;;;74.30;35.67;;;;;;;1.19;88.07;100629.72;5047924;28;20178;-77
2021/12/09 06:51:12;;;;;;;77.90;35.53;;;;;;;1.16;88.43;100631.22;5049399;28;20182;-77
2021/12/09 06:53:38;;;;;;;77.33;37.03;;;;;;;1.18;88.90;100633.03;5049333;28;20221;-77
2021/12/09 06:56:05;;;;;;;81.17;36.77;;;;;;;1.13;88.66;100631.03;5049260;28;20185;-77
2021/12/09 06:58:31;;;;;;;71.67;35.10;;;;;;;1.16;89.14;100648.88;5047786;28;20189;-78
2021/12/09 07:00:57;;;;;;;82.83;37.60;;;;;;;1.16;88.77;100652.25;5049270;28;20192;-76
2021/12/09 07:03:23;;;;;;;79.13;36.63;;;;;;;1.22;88.46;100645.00;5047832;28;20213;-76
2021/12/09 07:05:50;;;;;;;75.10;36.83;;;;;;;1.20;89.15;100645.72;5049260;28;20698;-77
2021/12/09 07:08:16;;;;;;;78.47;37.17;;;;;;;1.17;88.68;100643.91;5049130;28;20665;-76
2021/12/09 07:10:41;;;;;;;74.50;37.37;;;;;;;1.18;88.57;100647.28;5048044;28;20320;-76
2021/12/09 07:13:08;;;;;;;79.93;37.87;;;;;;;1.17;89.08;100653.09;5050634;28;20201;-77
2021/12/09 07:15:34;;;;;;;83.33;38.37;;;;;;;1.20;88.70;100646.59;5050641;28;20186;-77
2021/12/09 07:18:00;;;;;;;82.90;38.83;;;;;;;1.19;89.23;100638.94;5048782;28;20293;-78
2021/12/09 07:20:27;;;;;;;76.60;36.43;;;;;;;1.16;88.13;100637.13;5049302;28;20182;-78
2021/12/09 07:22:54;;;;;;;80.43;37.77;;;;;;;1.17;89.20;100646.44;5049329;28;20202;-77
2021/12/09 07:25:22;;;;;;;73.83;36.90;;;;;;;1.20;89.05;100641.56;5049341;28;20182;-78
2021/12/09 07:27:48;;;;;;;78.40;37.27;;;;;;;1.21;89.40;100644.94;5047725;28;20248;-77
2021/12/09 07:30:16;;;;;;;78.77;37.73;;;;;;;1.19;89.23;100646.50;5048401;28;20193;-77
2021/12/09 07:32:42;;;;;;;81.87;37.83;;;;;;;1.21;88.98;100665.09;5045436;28;20206;-78
2021/12/09 07:35:09;;;;;;;74.63;35.57;;;;;;;1.18;88.97;100664.91;5028647;28;20688;-78
2021/12/09 07:37:38;;;;;;;82.90;37.93;;;;;;;1.22;88.89;100662.66;5027662;28;20264;-77
2021/12/09 07:40:07;;;;;;;79.00;36.70;;;;;;;1.21;89.30;100665.97;5030457;28;20258;-77
2021/12/09 07:42:32;;;;;;;77.53;36.80;;;;;;;1.22;88.29;100660.13;5032661;28;20210;-78
2021/12/09 07:44:58;;;;;;;84.63;38.47;;;;;;;1.27;89.40;100668.81;5031369;28;20183;-78
2021/12/09 07:47:23;;;;;;;83.57;37.23;;;;;;;1.27;88.99;100660.38;5036105;28;20213;-77
2021/12/09 07:49:48;;;;;;;76.67;36.67;;;;;;;1.29;89.24;100671.41;5034485;28;20190;-76
2021/12/09 07:52:14;;;;;;;80.73;36.97;;;;;;;1.31;88.59;100663.16;5052630;28;20208;-76
2021/12/09 07:54:40;;;;;;;83.73;36.87;;;;;;;1.23;88.68;100666.06;5053109;28;20182;-76
2021/12/09 07:57:05;;;;;;;75.80;36.80;;;;;;;1.26;88.23;100673.75;5051184;28;20300;-77
2021/12/09 07:59:30;;;;;;;82.27;38.47;;;;;;;1.30;88.91;100673.16;5032561;28;20237;-77
2021/12/09 08:01:56;;;;;;;80.13;35.73;;;;;;;1.27;88.62;100672.97;5039922;28;20652;-77
2021/12/09 08:04:21;;;;;;;82.13;37.10;;;;;;;1.18;88.59;100683.44;5050432;28;20193;-78
2021/12/09 08:06:47;;;;;;;84.00;37.67;;;;;;;1.19;88.92;100679.28;5051974;28;20217;-77
2021/12/09 08:09:12;;;;;;;84.27;39.07;;;;;;;1.20;88.54;100681.91;5051996;28;20398;-77
2021/12/09 08:11:38;;;;;;;78.73;36.90;;;;;;;1.25;88.49;100683.00;5051756;28;20190;-77
2021/12/09 08:14:05;;;;;;;80.03;37.23;;;;;;;1.26;88.53;100683.84;5051366;28;20216;-77
2021/12/09 08:16:37;;;;;;;82.30;37.60;;;;;;;1.25;88.23;100677.09;5051940;28;20184;-78
2021/12/09 08:19:04;;;;;;;81.93;36.80;;;;;;;1.24;88.33;100672.84;5051708;28;20190;-77
2021/12/09 08:21:31;;;;;;;82.63;38.47;;;;;;;1.25;88.89;100688.03;5051895;28;20275;-77
2021/12/09 08:23:57;;;;;;;87.63;39.00;;;;;;;1.23;89.07;100689.59;5050518;28;20218;-78
2021/12/09 08:26:22;;;;;;;80.93;36.93;;;;;;;1.21;88.86;100683.63;5051762;28;20355;-77
2021/12/09 08:28:48;;;;;;;86.47;41.23;;;;;;;1.25;89.11;100693.09;5050185;28;20280;-77
2021/12/09 08:31:13;;;;;;;88.93;41.63;;;;;;;1.29;88.83;100696.63;5033834;28;20247;-77
2021/12/09 08:33:39;;;;;;;87.97;41.07;;;;;;;1.22;88.70;100694.56;5051891;28;20210;-76
2021/12/09 08:36:05;;;;;;;88.17;42.40;;;;;;;1.29;88.43;100701.69;5050496;28;20170;-75
2021/12/09 08:38:30;;;;;;;82.33;36.13;;;;;;;1.27;88.76;100695.66;5050228;28;20725;-77
2021/12/09 08:40:55;;;;;;;81.30;38.07;;;;;;;1.28;88.65;100687.34;5049863;28;20663;-75
2021/12/09 08:43:22;;;;;;;84.97;38.50;;;;;;;1.28;88.42;100682.28;5051498;28;20202;-76
2021/12/09 08:45:51;;;;;;;80.20;37.93;;;;;;;1.28;88.62;100678.09;5051390;28;20335;-77
2021/12/09 08:48:17;;;;;;;82.10;37.40;;;;;;;1.26;88.87;100681.34;5033339;28;20193;-77
2021/12/09 08:50:44;;;;;;;77.90;37.00;;;;;;;1.31;89.37;100680.78;5051274;28;20532;-76
2021/12/09 08:53:13;;;;;;;77.80;36.93;;;;;;;1.33;88.72;100681.72;5049339;28;20236;-77
2021/12/09 08:55:39;;;;;;;83.17;37.23;;;;;;;1.32;88.56;100676.63;5051201;28;20806;-75
2021/12/09 08:58:05;;;;;;;81.53;36.03;;;;;;;1.35;88.78;100684.34;5051035;28;20268;-75
2021/12/09 09:00:32;;;;;;;80.13;36.43;;;;;;;1.38;88.10;100679.47;5051102;28;20276;-76
2021/12/09 09:02:59;;;;;;;84.93;37.53;;;;;;;1.28;88.65;100680.63;5051313;28;20267;-78
2021/12/09 09:05:26;;;;;;;74.50;36.03;;;;;;;1.34;88.46;100686.00;5051144;28;20189;-77
2021/12/09 09:07:52;;;;;;;74.73;35.93;;;;;;;1.44;88.50;100680.66;5050846;28;20206;-77
2021/12/09 09:10:20;;;;;;;83.33;37.60;;;;;;;1.46;88.38;100681.59;5050786;28;20188;-78
2021/12/09 09:12:46;;;;;;;79.80;36.23;;;;;;;1.40;88.38;100678.75;5047050;28;20206;-77
2021/12/09 09:15:14;;;;;;;86.13;37.90;;;;;;;1.41;88.31;100674.56;5030805;28;20193;-72
2021/12/09 09:17:40;;;;;;;78.10;36.73;;;;;;;1.43;87.90;100673.88;5036814;28;20186;-76
2021/12/09 09:20:09;;;;;;;77.47;36.17;;;;;;;1.49;88.04;100679.25;5050085;28;20190;-76
2021/12/09 09:22:36;;;;;;;77.10;35.97;;;;;;;1.54;87.80;100671.91;5045824;28;20210;-77
2021/12/09 09:25:03;;;;;;;83.00;37.00;;;;;;;1.42;88.80;100677.16;5029181;28;20190;-77
2021/12/09 09:27:28;;;;;;;84.40;37.60;;;;;;;1.40;88.69;100673.72;5047978;28;20966;-76
2021/12/09 09:29:54;;;;;;;83.23;37.87;;;;;;;1.44;88.01;100675.63;5030835;28;20281;-77
2021/12/09 09:32:19;;;;;;;78.70;35.67;;;;;;;1.34;88.28;100683.50;5039677;28;20212;-77
2021/12/09 09:34:44;;;;;;;85.73;37.47;;;;;;;1.36;88.25;100683.53;5050576;28;20601;-77
2021/12/09 09:37:10;;;;;;;81.67;37.83;;;;;;;1.37;88.40;100672.69;5050394;28;20178;-77
2021/12/09 09:39:38;;;;;;;88.20;37.93;;;;;;;1.38;87.78;100674.44;5050195;28;20552;-77
2021/12/09 09:44:47;;;;;;;85.37;38.33;;;;;;;1.36;87.84;100675.97;5032486;28;20210;-78
2021/12/09 09:47:12;;;;;;;81.30;35.87;;;;;;;1.43;88.11;100675.53;5029341;28;20198;-77
2021/12/09 09:49:39;;;;;;;91.30;38.23;;;;;;;1.37;87.88;100673.53;5030574;28;20202;-74
2021/12/09 09:52:08;;;;;;;80.97;36.67;;;;;;;1.39;87.99;100668.59;5038849;28;20287;-75
2021/12/09 09:54:34;;;;;;;85.13;38.53;;;;;;;1.40;88.62;100668.66;5037572;28;20253;-75
2021/12/09 09:56:59;;;;;;;87.10;39.33;;;;;;;1.34;87.90;100670.00;5047638;28;20212;-75
2021/12/09 09:59:24;;;;;;;85.07;38.17;;;;;;;1.36;88.30;100665.91;5048126;28;20229;-76
2021/12/09 10:01:52;;;;;;;86.93;39.30;;;;;;;1.38;88.12;100667.72;5050025;28;20193;-75
2021/12/09 10:04:37;;;;;;;87.50;38.70;;;;;;;1.42;88.71;100672.13;5049549;28;20235;-75
2021/12/09 10:07:04;;;;;;;88.23;38.27;;;;;;;1.38;87.44;100676.94;5049387;28;20206;-77
2021/12/09 10:09:30;;;;;;;86.03;39.67;;;;;;;1.40;87.59;100677.88;5032408;28;20198;-76
2021/12/09 10:11:56;;;;;;;82.37;38.43;;;;;;;1.40;88.38;100675.34;5049698;28;20182;-75
2021/12/09 10:14:25;;;;;;;89.37;39.10;;;;;;;1.44;88.14;100677.25;5039263;28;20217;-75
2021/12/09 10:17:09;;;;;;;85.03;38.03;;;;;;;1.45;88.27;100674.81;5049801;28;20182;-75
2021/12/09 10:19:55;;;;;;;80.50;36.43;;;;;;;1.46;87.53;100674.03;5049111;28;20224;-77
2021/12/09 10:22:23;;;;;;;82.70;37.30;;;;;;;1.48;87.20;100666.53;5029702;28;20706;-75
2021/12/09 10:24:53;;;;;;;86.07;40.03;;;;;;;1.50;87.46;100675.94;5029779;28;20648;-75
2021/12/09 10:27:29;;;;;;;80.87;37.97;;;;;;;1.52;88.26;100670.97;5030159;28;20206;-75
2021/12/09 10:30:13;;;;;;;81.67;38.37;;;;;;;1.54;87.86;100665.22;5049324;28;20189;-78
2021/12/09 10:32:40;;;;;;;82.53;38.80;;;;;;;1.56;87.07;100658.56;5046744;28;20213;-76
2021/12/09 10:35:12;;;;;;;93.40;39.80;;;;;;;1.47;88.17;100660.63;5049512;28;20190;-76
2021/12/09 10:37:40;;;;;;;84.80;39.00;;;;;;;1.49;87.21;100651.50;5045844;28;20190;-76
2021/12/09 10:40:11;;;;;;;91.63;38.73;;;;;;;1.58;87.13;100654.50;5030386;28;20197;-76
2021/12/09 10:42:51;;;;;;;86.63;39.03;;;;;;;1.52;87.23;100649.09;5029910;28;20212;-76
2021/12/09 10:45:31;;;;;;;85.30;38.67;;;;;;;1.55;87.58;100643.34;5049544;28;20170;-77
2021/12/09 10:48:03;;;;;;;85.27;37.17;;;;;;;1.59;87.53;100643.59;5048982;28;20591;-77
2021/12/09 10:50:36;;;;;;;86.27;37.17;;;;;;;1.64;87.78;100644.72;5030006;28;20229;-75
2021/12/09 10:55:51;;;;;;;87.77;38.07;;;;;;;1.56;87.96;100643.44;5030328;28;20185;-74
2021/12/09 10:58:21;;;;;;;88.83;37.90;;;;;;;1.50;88.32;100648.19;5031512;28;20186;-75
2021/12/09 11:01:05;;;;;;;86.27;38.43;;;;;;;1.54;88.35;100650.06;5045493;28;20738;-75
2021/12/09 11:03:36;;;;;;;86.27;38.33;;;;;;;1.60;87.41;100642.81;5038416;28;20206;-74
2021/12/09 11:06:11;;;;;;;89.23;38.63;;;;;;;1.64;87.46;100633.72;5029435;28;20671;-75
2021/12/09 11:08:43;;;;;;;88.57;39.17;;;;;;;1.68;87.71;100648.25;5040251;28;20212;-74
2021/12/09 11:11:11;;;;;;;84.70;37.27;;;;;;;1.72;87.69;100648.50;5049587;28;20284;-75
2021/12/09 11:14:02;;;;;;;92.63;40.73;;;;;;;1.66;87.76;100649.84;5047769;28;20220;-74
2021/12/09 11:16:32;;;;;;;84.43;38.87;;;;;;;1.72;87.61;100650.13;5039286;28;20191;-75
2021/12/09 11:19:10;;;;;;;83.83;38.40;;;;;;;1.76;87.54;100634.38;5033167;28;20688;-77
2021/12/09 11:21:41;;;;;;;85.00;38.80;;;;;;;1.80;87.63;100639.66;5049332;28;20209;-75
2021/12/09 11:24:10;;;;;;;85.40;38.77;;;;;;;1.80;87.74;100633.75;5032987;28;20268;-75
2021/12/09 11:26:55;;;;;;;87.20;40.37;;;;;;;1.82;87.17;100639.72;5051491;28;20286;-74